createdAt,value
2022-12-16T00:00:08.622Z,20.07
2022-12-16T00:02:35.461Z,19.57
2022-12-16T00:05:02.360Z,18.50
2022-12-16T00:07:29.043Z,18.83
2022-12-16T00:09:55.755Z,17.50
2022-12-16T00:12:22.753Z,18.80
2022-12-16T00:14:49.503Z,15.83
2022-12-16T00:17:17.240Z,16.93
2022-12-16T00:19:44.017Z,17.90
2022-12-16T00:22:10.696Z,16.20
2022-12-16T00:24:37.620Z,16.83
2022-12-16T00:27:04.495Z,15.87
2022-12-16T00:29:31.246Z,14.47
2022-12-16T00:31:58.071Z,15.47
2022-12-16T00:34:25.052Z,14.70
2022-12-16T00:36:52.367Z,16.10
2022-12-16T00:39:19.075Z,13.67
2022-12-16T00:41:47.662Z,13.47
2022-12-16T00:44:14.652Z,14.10
2022-12-16T00:46:41.352Z,15.57
2022-12-16T00:49:08.427Z,13.10
2022-12-16T00:51:35.158Z,13.07
2022-12-16T00:54:01.862Z,13.60
2022-12-16T00:56:28.561Z,16.40
2022-12-16T00:58:55.303Z,13.30
2022-12-16T01:01:22.363Z,12.03
2022-12-16T01:03:49.247Z,15.37
2022-12-16T01:06:17.452Z,13.73
2022-12-16T01:08:48.775Z,13.40
2022-12-16T01:11:18.576Z,13.23
2022-12-16T01:13:45.987Z,12.10
2022-12-16T01:16:12.747Z,11.93
2022-12-16T01:18:39.476Z,11.50
2022-12-16T01:21:08.638Z,10.37
2022-12-16T01:23:35.929Z,11.03
2022-12-16T01:26:03.562Z,11.67
2022-12-16T01:28:30.801Z,11.90
2022-12-16T01:31:01.607Z,10.57
2022-12-16T01:33:32.948Z,11.07
2022-12-16T01:36:07.916Z,12.30
2022-12-16T01:38:35.574Z,11.83
2022-12-16T01:41:03.001Z,11.83
2022-12-16T01:43:33.223Z,10.50
2022-12-16T01:46:06.836Z,10.70
2022-12-16T01:48:36.468Z,11.67
2022-12-16T01:51:10.801Z,10.33
2022-12-16T01:53:40.644Z,10.17
2022-12-16T01:56:07.839Z,9.73
2022-12-16T01:58:37.102Z,9.90
2022-12-16T02:01:04.850Z,9.10
2022-12-16T02:03:35.487Z,10.50
2022-12-16T02:06:05.450Z,9.00
2022-12-16T02:08:32.215Z,10.37
2022-12-16T02:11:19.903Z,9.47
2022-12-16T02:14:05.489Z,8.93
2022-12-16T02:17:00.815Z,9.80
2022-12-16T02:19:42.095Z,8.83
2022-12-16T02:22:27.305Z,8.10
2022-12-16T02:25:02.829Z,9.03
2022-12-16T02:27:44.382Z,9.77
2022-12-16T02:30:42.022Z,8.33
2022-12-16T02:33:26.705Z,12.87
2022-12-16T02:36:22.937Z,10.03
2022-12-16T02:38:56.773Z,9.77
2022-12-16T02:41:49.602Z,8.23
2022-12-16T02:44:18.442Z,9.40
2022-12-16T02:46:55.872Z,10.00
2022-12-16T02:49:22.541Z,7.57
2022-12-16T02:51:50.040Z,8.27
2022-12-16T02:54:18.872Z,9.70
2022-12-16T02:56:54.708Z,9.97
2022-12-16T03:01:55.718Z,9.63
2022-12-16T03:04:26.639Z,9.10
2022-12-16T03:06:55.799Z,8.17
2022-12-16T03:09:29.669Z,9.77
2022-12-16T03:11:57.691Z,11.00
2022-12-16T03:14:28.919Z,10.43
2022-12-16T03:16:56.628Z,10.53
2022-12-16T03:19:25.899Z,11.63
2022-12-16T03:22:03.613Z,8.70
2022-12-16T03:24:30.674Z,9.97
2022-12-16T03:27:14.993Z,9.83
2022-12-16T03:29:45.814Z,11.00
2022-12-16T03:32:21.481Z,12.80
2022-12-16T03:34:56.427Z,11.10
2022-12-16T03:37:27.747Z,12.83
2022-12-16T03:39:57.186Z,12.57
2022-12-16T03:42:24.919Z,13.70
2022-12-16T03:44:51.786Z,13.43
2022-12-16T03:47:23.471Z,12.07
2022-12-16T03:49:50.817Z,12.17
2022-12-16T03:52:17.534Z,12.13
2022-12-16T03:54:44.235Z,12.50
2022-12-16T03:57:15.322Z,12.17
2022-12-16T03:59:43.297Z,13.40
2022-12-16T04:02:10.121Z,12.70
2022-12-16T04:04:38.273Z,11.93
2022-12-16T04:07:20.244Z,12.80
2022-12-16T04:09:48.142Z,12.10
2022-12-16T04:12:33.604Z,14.00
2022-12-16T04:15:18.700Z,10.93
2022-12-16T04:18:05.600Z,11.60
2022-12-16T04:20:55.462Z,11.83
2022-12-16T04:23:42.960Z,12.17
2022-12-16T04:26:09.936Z,13.80
2022-12-16T04:28:36.887Z,13.30
2022-12-16T04:31:03.982Z,15.20
2022-12-16T04:33:49.407Z,12.87
2022-12-16T04:36:34.906Z,13.50
2022-12-16T04:39:20.360Z,11.10
2022-12-16T04:42:05.917Z,14.10
2022-12-16T04:44:51.080Z,12.03
2022-12-16T04:47:36.337Z,15.37
2022-12-16T04:50:21.779Z,12.10
2022-12-16T04:53:10.224Z,12.07
2022-12-16T04:56:00.591Z,13.93
2022-12-16T04:58:49.198Z,11.83
2022-12-16T05:01:34.692Z,12.47
2022-12-16T05:04:19.838Z,12.57
2022-12-16T05:07:05.337Z,12.73
2022-12-16T05:09:50.820Z,14.17
2022-12-16T05:12:36.248Z,12.80
2022-12-16T05:15:21.708Z,15.67
2022-12-16T05:18:07.061Z,14.17
2022-12-16T05:20:52.690Z,11.63
2022-12-16T05:23:38.088Z,13.40
2022-12-16T05:26:23.504Z,12.40
2022-12-16T05:29:19.644Z,12.73
2022-12-16T05:32:05.057Z,13.17
2022-12-16T05:34:50.430Z,12.73
2022-12-16T05:37:35.961Z,11.97
2022-12-16T05:40:21.321Z,12.97
2022-12-16T05:43:08.895Z,15.03
2022-12-16T05:45:56.439Z,13.17
2022-12-16T05:48:47.458Z,13.63
2022-12-16T05:51:33.123Z,13.47
2022-12-16T05:54:18.504Z,15.23
2022-12-16T05:57:03.730Z,11.17
2022-12-16T06:00:09.040Z,12.67
2022-12-16T06:02:54.342Z,12.13
2022-12-16T06:05:39.763Z,10.77
2022-12-16T06:08:25.120Z,10.77
2022-12-16T06:11:10.744Z,12.63
2022-12-16T06:13:56.302Z,13.53
2022-12-16T06:16:41.872Z,13.67
2022-12-16T06:19:27.394Z,11.83
2022-12-16T06:22:12.738Z,13.00
2022-12-16T06:24:58.241Z,11.77
2022-12-16T06:27:43.550Z,13.13
2022-12-16T06:30:29.399Z,13.00
2022-12-16T06:33:14.972Z,11.97
2022-12-16T06:36:00.333Z,12.33
2022-12-16T06:38:45.944Z,11.63
2022-12-16T06:41:48.137Z,12.20
2022-12-16T06:44:33.437Z,12.23
2022-12-16T06:47:18.976Z,14.93
2022-12-16T06:50:04.419Z,11.33
2022-12-16T06:52:49.938Z,12.93
2022-12-16T06:55:35.505Z,10.57
2022-12-16T06:58:21.211Z,14.33
2022-12-16T07:01:06.578Z,12.87
2022-12-16T07:03:51.892Z,14.17
2022-12-16T07:06:37.371Z,13.77
2022-12-16T07:09:22.856Z,12.33
2022-12-16T07:12:08.492Z,14.10
2022-12-16T07:14:53.805Z,12.17
2022-12-16T07:17:39.337Z,13.57
2022-12-16T07:20:25.462Z,13.10
2022-12-16T07:23:17.734Z,13.73
2022-12-16T07:26:05.187Z,13.63
2022-12-16T07:28:50.660Z,12.47
2022-12-16T07:31:36.245Z,14.20
2022-12-16T07:34:21.535Z,14.03
2022-12-16T07:37:06.978Z,14.97
2022-12-16T07:39:55.216Z,13.40
2022-12-16T07:42:41.606Z,13.80
2022-12-16T07:45:27.525Z,13.87
2022-12-16T07:48:13.312Z,13.23
2022-12-16T07:50:58.680Z,14.50
2022-12-16T07:53:44.133Z,14.53
2022-12-16T07:56:29.565Z,15.60
2022-12-16T07:59:15.178Z,14.43
2022-12-16T08:02:00.864Z,17.77
2022-12-16T08:04:46.149Z,15.47
2022-12-16T08:07:31.723Z,14.53
2022-12-16T08:10:17.281Z,14.43
2022-12-16T08:13:03.037Z,12.93
2022-12-16T08:15:48.394Z,16.37
2022-12-16T08:18:35.338Z,16.00
2022-12-16T08:21:20.878Z,15.10
2022-12-16T08:24:06.178Z,13.63
2022-12-16T08:26:51.783Z,17.07
2022-12-16T08:29:45.707Z,14.90
2022-12-16T08:32:32.625Z,14.70
2022-12-16T08:35:18.053Z,16.23
2022-12-16T08:38:05.480Z,14.97
2022-12-16T08:40:52.965Z,14.03
2022-12-16T08:43:40.805Z,14.27
2022-12-16T08:46:26.232Z,15.40
2022-12-16T08:49:11.692Z,16.47
2022-12-16T08:51:57.126Z,15.87
2022-12-16T08:54:42.708Z,14.27
2022-12-16T08:57:28.093Z,17.80
2022-12-16T09:02:53.939Z,16.37
2022-12-16T09:05:41.136Z,17.53
2022-12-16T09:08:26.589Z,14.87
2022-12-16T09:11:12.132Z,17.00
2022-12-16T09:13:57.370Z,15.23
2022-12-16T09:16:42.944Z,16.03
2022-12-16T09:19:29.421Z,17.27
2022-12-16T09:22:14.888Z,16.80
2022-12-16T09:25:00.252Z,14.10
2022-12-16T09:27:46.901Z,16.83
2022-12-16T09:30:32.256Z,14.40
2022-12-16T09:33:19.647Z,16.07
2022-12-16T09:36:05.046Z,16.80
2022-12-16T09:38:50.458Z,15.27
2022-12-16T09:41:45.163Z,16.83
2022-12-16T09:44:48.798Z,16.73
2022-12-16T09:47:41.622Z,15.90
2022-12-16T09:50:41.807Z,15.37
2022-12-16T09:53:33.341Z,15.83
2022-12-16T09:56:21.875Z,15.53
2022-12-16T09:59:21.463Z,16.80
2022-12-16T10:02:08.417Z,14.33
2022-12-16T10:04:54.153Z,14.60
2022-12-16T10:07:42.249Z,13.93
2022-12-16T10:10:44.560Z,14.97
2022-12-16T10:13:41.766Z,16.23
2022-12-16T10:16:42.299Z,17.27
2022-12-16T10:19:57.577Z,15.13
2022-12-16T10:23:29.183Z,13.93
2022-12-16T10:26:29.351Z,13.83
2022-12-16T10:29:31.410Z,14.80
2022-12-16T10:32:16.949Z,13.23
2022-12-16T10:35:02.911Z,12.53
2022-12-16T10:37:55.691Z,14.80
2022-12-16T10:40:45.582Z,14.90
2022-12-16T10:43:43.916Z,13.10
2022-12-16T10:46:37.472Z,12.27
2022-12-16T10:49:22.626Z,12.73
2022-12-16T10:52:09.214Z,12.93
2022-12-16T10:55:01.198Z,13.53
2022-12-16T10:58:13.277Z,14.27
2022-12-16T11:01:05.203Z,13.37
2022-12-16T11:03:54.526Z,16.50
2022-12-16T11:06:54.002Z,11.77
2022-12-16T11:09:50.107Z,12.17
2022-12-16T11:12:39.166Z,13.80
2022-12-16T11:15:53.328Z,13.37
2022-12-16T11:18:41.653Z,14.47
2022-12-16T11:21:40.402Z,14.57
2022-12-16T11:24:28.454Z,13.13
2022-12-16T11:27:16.049Z,13.40
2022-12-16T11:30:16.115Z,13.27
2022-12-16T11:33:13.997Z,13.63
2022-12-16T11:36:12.234Z,17.07
2022-12-16T11:39:03.271Z,14.47
2022-12-16T11:41:53.946Z,12.10
2022-12-16T11:45:08.493Z,12.63
2022-12-16T11:48:10.992Z,12.90
2022-12-16T11:51:09.341Z,14.17
2022-12-16T11:54:08.433Z,14.00
2022-12-16T11:56:57.724Z,14.57
2022-12-16T11:59:49.907Z,14.60
2022-12-16T12:02:57.251Z,13.10
2022-12-16T12:06:09.028Z,14.03
2022-12-16T12:09:08.889Z,11.83
2022-12-16T12:11:57.284Z,11.53
2022-12-16T12:14:58.149Z,16.73
2022-12-16T12:17:59.558Z,14.67
2022-12-16T12:21:19.720Z,11.13
2022-12-16T12:24:18.930Z,13.40
2022-12-16T12:27:19.939Z,13.93
2022-12-16T12:30:20.748Z,12.43
2022-12-16T12:33:40.465Z,11.63
2022-12-16T12:36:50.532Z,14.07
2022-12-16T12:40:01.725Z,14.90
2022-12-16T12:43:03.781Z,11.70
2022-12-16T12:46:36.591Z,13.17
2022-12-16T12:49:54.062Z,13.53
2022-12-16T12:53:09.341Z,15.37
2022-12-16T12:56:06.441Z,13.83
2022-12-16T12:58:54.585Z,16.30
2022-12-16T13:01:45.883Z,14.67
2022-12-16T13:04:35.578Z,16.43
2022-12-16T13:07:22.163Z,17.80
2022-12-16T13:10:31.033Z,16.03
2022-12-16T13:13:43.958Z,12.70
2022-12-16T13:16:31.521Z,13.53
2022-12-16T13:19:49.203Z,14.93
2022-12-16T13:22:54.211Z,14.80
2022-12-16T13:25:55.349Z,11.97
2022-12-16T13:28:50.471Z,12.10
2022-12-16T13:31:36.462Z,12.03
2022-12-16T13:34:33.990Z,11.67
2022-12-16T13:37:26.870Z,13.20
2022-12-16T13:40:21.029Z,13.23
2022-12-16T13:43:07.945Z,13.90
2022-12-16T13:45:59.366Z,12.53
2022-12-16T13:48:59.395Z,10.90
2022-12-16T13:51:56.653Z,14.57
2022-12-16T13:55:11.672Z,13.83
2022-12-16T13:58:01.167Z,13.23
2022-12-16T14:00:47.519Z,14.10
2022-12-16T14:03:40.938Z,14.50
2022-12-16T14:06:43.273Z,15.27
2022-12-16T14:09:54.877Z,16.47
2022-12-16T14:12:41.624Z,14.27
2022-12-16T14:15:43.107Z,12.80
2022-12-16T14:18:47.671Z,16.43
2022-12-16T14:21:38.520Z,15.20
2022-12-16T14:24:35.668Z,16.93
2022-12-16T14:27:29.738Z,15.23
2022-12-16T14:30:15.051Z,15.57
2022-12-16T14:33:00.583Z,17.43
2022-12-16T14:35:47.145Z,15.70
2022-12-16T14:38:47.413Z,16.50
2022-12-16T14:41:48.489Z,16.00
2022-12-16T14:44:37.189Z,19.10
2022-12-16T14:47:22.681Z,21.93
2022-12-16T14:50:10.668Z,19.50
2022-12-16T14:52:56.136Z,21.97
2022-12-16T14:55:53.220Z,24.17
2022-12-16T14:58:41.784Z,23.33
2022-12-16T15:01:39.524Z,28.33
2022-12-16T15:04:40.320Z,38.60
2022-12-16T15:07:32.092Z,40.60
2022-12-16T15:10:18.726Z,51.83
2022-12-16T15:13:07.787Z,49.00
2022-12-16T15:16:03.254Z,53.03
2022-12-16T15:18:58.729Z,50.60
2022-12-16T15:21:44.209Z,46.63
2022-12-16T15:24:36.518Z,39.90
2022-12-16T15:27:39.685Z,34.23
2022-12-16T15:30:50.015Z,30.87
2022-12-16T15:33:37.349Z,35.60
2022-12-16T15:36:24.379Z,34.73
2022-12-16T15:39:09.952Z,30.20
2022-12-16T15:41:56.175Z,32.00
2022-12-16T15:44:44.664Z,27.47
2022-12-16T15:47:51.978Z,29.93
2022-12-16T15:50:59.974Z,30.87
2022-12-16T15:53:49.505Z,37.03
2022-12-16T15:57:00.338Z,32.57
2022-12-16T15:59:52.023Z,35.23
2022-12-16T16:02:46.669Z,30.87
2022-12-16T16:05:33.164Z,38.23
2022-12-16T16:08:18.661Z,37.83
2022-12-16T16:11:04.207Z,35.37
2022-12-16T16:13:49.733Z,34.67
2022-12-16T16:16:35.854Z,38.27
2022-12-16T16:19:21.078Z,33.63
2022-12-16T16:22:06.610Z,39.80
2022-12-16T16:24:51.982Z,31.37
2022-12-16T16:27:37.933Z,37.83
2022-12-16T16:30:25.474Z,38.87
2022-12-16T16:33:11.084Z,39.23
2022-12-16T16:35:56.525Z,36.07
2022-12-16T16:38:41.828Z,43.47
2022-12-16T16:41:33.454Z,41.57
2022-12-16T16:44:19.949Z,41.37
2022-12-16T16:47:06.035Z,36.37
2022-12-16T16:49:59.873Z,39.23
2022-12-16T16:52:47.228Z,38.53
2022-12-16T16:55:37.603Z,36.87
2022-12-16T16:58:31.648Z,41.73
2022-12-16T17:01:17.103Z,39.97
2022-12-16T17:04:02.730Z,37.07
2022-12-16T17:06:48.388Z,44.00
2022-12-16T17:09:33.496Z,40.20
2022-12-16T17:12:18.974Z,43.77
2022-12-16T17:15:04.469Z,43.87
2022-12-16T17:17:49.986Z,44.43
2022-12-16T17:20:36.211Z,45.37
2022-12-16T17:23:23.176Z,49.10
2022-12-16T17:26:08.608Z,42.03
2022-12-16T17:28:53.984Z,47.20
2022-12-16T17:31:39.393Z,37.50
2022-12-16T17:34:24.542Z,40.97
2022-12-16T17:37:09.922Z,46.37
2022-12-16T17:39:55.341Z,44.97
2022-12-16T17:42:46.257Z,42.83
2022-12-16T17:45:32.041Z,44.67
2022-12-16T17:48:17.639Z,44.00
2022-12-16T17:51:04.363Z,41.30
2022-12-16T17:53:52.517Z,38.93
2022-12-16T17:56:41.031Z,42.53
2022-12-16T17:59:28.184Z,50.30
2022-12-16T18:02:13.861Z,54.70
2022-12-16T18:04:59.312Z,55.33
2022-12-16T18:07:44.634Z,45.90
2022-12-16T18:10:30.158Z,45.03
2022-12-16T18:13:15.745Z,52.03
2022-12-16T18:16:00.846Z,48.83
2022-12-16T18:18:47.173Z,47.80
2022-12-16T18:21:33.187Z,47.57
2022-12-16T18:24:18.635Z,39.07
2022-12-16T18:27:04.232Z,42.33
2022-12-16T18:29:49.618Z,43.17
2022-12-16T18:32:35.582Z,40.70
2022-12-16T18:35:22.569Z,44.83
2022-12-16T18:38:11.010Z,42.60
2022-12-16T18:40:58.674Z,46.37
2022-12-16T18:43:44.270Z,40.43
2022-12-16T18:46:29.788Z,40.93
2022-12-16T18:49:15.200Z,39.20
2022-12-16T18:52:00.542Z,45.27
2022-12-16T18:54:45.794Z,52.57
2022-12-16T18:57:36.400Z,50.73
2022-12-16T19:00:25.160Z,72.27
2022-12-16T19:03:10.595Z,64.17
2022-12-16T19:05:55.990Z,63.33
2022-12-16T19:08:41.785Z,68.20
2022-12-16T19:11:28.155Z,73.57
2022-12-16T19:14:13.579Z,60.03
2022-12-16T19:16:59.095Z,46.80
2022-12-16T19:19:44.529Z,50.77
2022-12-16T19:22:29.963Z,45.27
2022-12-16T19:25:15.354Z,41.97
2022-12-16T19:28:00.849Z,39.13
2022-12-16T19:30:46.321Z,37.33
2022-12-16T19:33:33.207Z,36.70
2022-12-16T19:36:18.882Z,34.27
2022-12-16T19:39:04.204Z,39.13
2022-12-16T19:41:50.240Z,38.07
2022-12-16T19:44:35.773Z,38.57
2022-12-16T19:47:20.950Z,36.70
2022-12-16T19:50:26.301Z,35.57
2022-12-16T19:53:12.266Z,35.53
2022-12-16T19:55:57.330Z,38.93
2022-12-16T19:58:42.981Z,37.20
2022-12-16T20:01:28.576Z,40.33
2022-12-16T20:04:14.014Z,41.77
2022-12-16T20:06:59.623Z,40.73
2022-12-16T20:09:45.082Z,40.63
2022-12-16T20:12:30.687Z,40.57
2022-12-16T20:15:16.169Z,36.43
2022-12-16T20:18:01.649Z,32.57
2022-12-16T20:20:47.241Z,36.60
2022-12-16T20:23:32.657Z,32.53
2022-12-16T20:26:20.210Z,32.17
2022-12-16T20:29:06.767Z,34.13
2022-12-16T20:31:52.516Z,35.10
2022-12-16T20:34:41.426Z,37.10
2022-12-16T20:37:27.113Z,35.13
2022-12-16T20:40:12.351Z,34.03
2022-12-16T20:42:57.901Z,32.83
2022-12-16T20:45:43.293Z,34.83
2022-12-16T20:48:32.570Z,35.03
2022-12-16T20:54:28.442Z,36.67
2022-12-16T20:57:13.825Z,35.97
2022-12-16T20:59:59.430Z,35.07
2022-12-16T21:02:44.838Z,34.53
2022-12-16T21:05:30.397Z,34.53
2022-12-16T21:08:15.770Z,34.87
2022-12-16T21:11:01.161Z,35.60
2022-12-16T21:13:46.920Z,34.37
2022-12-16T21:16:32.272Z,34.03
2022-12-16T21:19:17.727Z,33.10
2022-12-16T21:22:03.202Z,30.73
2022-12-16T21:24:48.737Z,31.60
2022-12-16T21:27:34.214Z,34.47
2022-12-16T21:30:19.776Z,32.27
2022-12-16T21:33:05.115Z,36.27
2022-12-16T21:35:50.559Z,34.07
2022-12-16T21:38:36.898Z,34.53
2022-12-16T21:41:22.405Z,34.87
2022-12-16T21:44:09.669Z,37.90
2022-12-16T21:46:55.262Z,32.33
2022-12-16T21:49:40.691Z,33.17
2022-12-16T21:52:26.294Z,29.43
2022-12-16T21:55:11.743Z,40.23
2022-12-16T21:57:57.297Z,35.50
2022-12-16T22:00:42.608Z,31.80
2022-12-16T22:03:27.950Z,33.30
2022-12-16T22:06:17.552Z,32.57
2022-12-16T22:09:03.057Z,25.33
2022-12-16T22:11:48.491Z,25.53
2022-12-16T22:14:33.974Z,27.43
2022-12-16T22:17:19.197Z,33.50
2022-12-16T22:20:04.722Z,30.40
2022-12-16T22:22:50.211Z,32.63
2022-12-16T22:25:35.710Z,26.87
2022-12-16T22:28:21.080Z,28.20
2022-12-16T22:31:15.793Z,28.80
2022-12-16T22:34:01.840Z,31.40
2022-12-16T22:36:47.455Z,26.97
2022-12-16T22:39:32.914Z,29.27
2022-12-16T22:42:18.427Z,35.80
2022-12-16T22:45:03.940Z,36.00
2022-12-16T22:47:49.966Z,34.17
2022-12-16T22:50:35.607Z,31.60
2022-12-16T22:53:20.913Z,32.57
2022-12-16T22:56:13.535Z,35.97
2022-12-16T22:58:59.363Z,23.97
2022-12-16T23:01:44.892Z,26.63
2022-12-16T23:04:30.334Z,27.97
2022-12-16T23:07:15.749Z,29.10
2022-12-16T23:10:01.140Z,26.80
2022-12-16T23:12:46.511Z,26.27
2022-12-16T23:15:32.543Z,28.03
2022-12-16T23:18:18.422Z,28.83
2022-12-16T23:21:07.952Z,28.03
2022-12-16T23:23:53.563Z,30.03
2022-12-16T23:26:42.160Z,26.20
2022-12-16T23:29:27.608Z,24.47
2022-12-16T23:32:13.252Z,26.67
2022-12-16T23:34:58.662Z,27.53
2022-12-16T23:37:44.074Z,26.57
2022-12-16T23:40:29.479Z,25.97
2022-12-16T23:43:14.816Z,30.70
2022-12-16T23:46:01.957Z,27.07
2022-12-16T23:48:47.115Z,27.17
2022-12-16T23:51:32.656Z,25.50
2022-12-16T23:54:18.116Z,25.10
2022-12-16T23:57:03.485Z,27.07
2022-12-16T23:59:49.007Z,24.70
